Time;durP1;ratioP1;P1;durP2;ratioP2;P2;SDS_P1;SDS_P2;PMS_P1;PMS_P2;Temp;Humidity;BMP_temperature;BMP_pressure;BME280_temperature;BME280_humidity;BME280_pressure;Samples;Min_cycle;Max_cycle;Signal;HPM_P1;HPM_P2
2021/09/16 00:01:44;;;;;;;2.23;1.30;;;;;;;;;;6381078;22;20466;-80
2021/09/16 00:07:13;;;;;;;3.33;1.50;;;;;;;;;;6381175;22;20378;-80
2021/09/16 00:09:39;;;;;;;2.63;1.47;;;;;;;;;;6380872;22;20376;-79
2021/09/16 00:12:05;;;;;;;1.90;1.33;;;;;;;;;;6380924;22;20419;-80
2021/09/16 00:14:31;;;;;;;1.07;0.97;;;;;;;;;;6380870;22;20363;-80
2021/09/16 00:16:57;;;;;;;2.63;0.97;;;;;;;;;;6370686;22;20685;-76
2021/09/16 00:22:26;;;;;;;1.33;1.23;;;;;;;;;;6380900;22;20366;-80
2021/09/16 00:24:52;;;;;;;1.33;1.23;;;;;;;;;;6380696;22;20814;-77
2021/09/16 00:27:18;;;;;;;2.20;1.50;;;;;;;;;;6380714;22;20454;-78
2021/09/16 00:29:44;;;;;;;3.37;1.37;;;;;;;;;;6380682;22;20374;-79
2021/09/16 00:32:11;;;;;;;1.90;1.30;;;;;;;;;;6380662;22;20431;-80
2021/09/16 00:37:40;;;;;;;1.60;1.33;;;;;;;;;;6380896;22;20371;-78
2021/09/16 00:40:07;;;;;;;1.30;1.20;;;;;;;;;;6380512;22;20382;-80
2021/09/16 00:42:33;;;;;;;2.50;1.27;;;;;;;;;;6380610;22;20372;-80
2021/09/16 00:44:59;;;;;;;1.23;1.17;;;;;;;;;;6380533;22;20360;-80
2021/09/16 00:47:25;;;;;;;3.00;1.40;;;;;;;;;;6342079;22;20383;-79
2021/09/16 00:52:55;;;;;;;1.40;1.00;;;;;;;;;;6382697;22;20498;-80
2021/09/16 00:55:23;;;;;;;0.80;0.70;;;;;;;;;;6382429;22;20866;-79
2021/09/16 00:57:51;;;;;;;1.17;1.07;;;;;;;;;;6382446;22;20432;-80
2021/09/16 01:00:18;;;;;;;1.77;1.40;;;;;;;;;;6382528;22;20367;-80
2021/09/16 01:08:51;;;;;;;1.20;1.00;;;;;;;;;;6382412;22;20423;-77
2021/09/16 01:11:18;;;;;;;1.10;1.00;;;;;;;;;;6382532;22;20733;-80
2021/09/16 01:13:44;;;;;;;1.17;1.07;;;;;;;;;;6383478;22;20455;-79
2021/09/16 01:16:10;;;;;;;1.47;1.13;;;;;;;;;;6382932;22;20370;-79
2021/09/16 01:18:36;;;;;;;2.00;1.07;;;;;;;;;;6381774;22;20551;-79
2021/09/16 01:21:02;;;;;;;1.93;1.03;;;;;;;;;;6382699;22;20889;-79
2021/09/16 01:23:28;;;;;;;2.03;1.00;;;;;;;;;;6382364;22;20392;-79
2021/09/16 01:25:54;;;;;;;1.17;1.07;;;;;;;;;;6382359;22;20834;-80
2021/09/16 01:28:20;;;;;;;1.37;1.27;;;;;;;;;;6382734;22;20385;-79
2021/09/16 01:30:47;;;;;;;2.10;1.07;;;;;;;;;;6382687;22;20431;-80
2021/09/16 01:33:13;;;;;;;3.20;1.30;;;;;;;;;;6382306;22;20359;-80
2021/09/16 01:35:39;;;;;;;3.37;1.30;;;;;;;;;;6382498;22;20822;-80
2021/09/16 01:38:05;;;;;;;0.80;0.80;;;;;;;;;;6381807;22;20497;-79
2021/09/16 01:40:31;;;;;;;1.73;1.63;;;;;;;;;;6343303;22;20484;-80
2021/09/16 01:42:57;;;;;;;1.30;1.20;;;;;;;;;;6381962;22;20670;-79
2021/09/16 01:45:25;;;;;;;1.67;1.10;;;;;;;;;;6382135;22;20420;-78
2021/09/16 01:47:51;;;;;;;1.43;1.17;;;;;;;;;;6382179;22;20442;-80
2021/09/16 01:53:20;;;;;;;1.43;1.00;;;;;;;;;;6382189;22;20390;-80
2021/09/16 01:55:46;;;;;;;1.53;1.43;;;;;;;;;;6382094;22;20368;-80
2021/09/16 01:58:12;;;;;;;1.20;1.00;;;;;;;;;;6382343;22;20386;-79
2021/09/16 02:00:38;;;;;;;3.13;0.87;;;;;;;;;;6382324;22;20371;-80
2021/09/16 02:03:04;;;;;;;1.20;1.10;;;;;;;;;;6382032;22;20367;-77
2021/09/16 02:08:33;;;;;;;1.17;1.07;;;;;;;;;;6382207;22;20378;-80
2021/09/16 02:10:59;;;;;;;1.57;1.47;;;;;;;;;;6381741;22;20406;-80
2021/09/16 02:13:26;;;;;;;1.70;1.37;;;;;;;;;;6381804;22;20379;-79
2021/09/16 02:15:52;;;;;;;2.10;1.43;;;;;;;;;;6381850;22;20355;-78
2021/09/16 02:18:18;;;;;;;2.47;1.17;;;;;;;;;;6381940;22;20390;-79
2021/09/16 02:23:48;;;;;;;2.50;1.23;;;;;;;;;;6381814;22;20370;-80
2021/09/16 02:26:14;;;;;;;2.60;1.17;;;;;;;;;;6381507;22;20422;-79
2021/09/16 02:28:40;;;;;;;1.33;1.20;;;;;;;;;;6343381;22;20392;-79
2021/09/16 02:31:06;;;;;;;1.47;1.27;;;;;;;;;;6381648;22;20903;-78
2021/09/16 02:33:33;;;;;;;1.87;1.07;;;;;;;;;;6381473;22;20371;-79
2021/09/16 02:39:03;;;;;;;1.50;1.30;;;;;;;;;;6381739;22;20432;-80
2021/09/16 02:41:29;;;;;;;1.80;1.20;;;;;;;;;;6381526;22;20368;-80
2021/09/16 02:43:55;;;;;;;1.73;1.40;;;;;;;;;;6381343;22;20355;-80
2021/09/16 02:46:21;;;;;;;6.30;2.30;;;;;;;;;;6381639;22;20359;-80
2021/09/16 02:48:47;;;;;;;5.60;1.53;;;;;;;;;;6371199;22;20363;-78
2021/09/16 02:51:13;;;;;;;3.00;1.40;;;;;;;;;;6381544;22;20419;-80
2021/09/16 02:53:39;;;;;;;5.00;1.27;;;;;;;;;;6371281;22;20729;-79
2021/09/16 02:56:06;;;;;;;1.43;1.33;;;;;;;;;;6381357;22;20363;-80
2021/09/16 02:58:32;;;;;;;1.93;1.20;;;;;;;;;;6371279;22;20393;-78
2021/09/16 03:00:58;;;;;;;2.10;1.13;;;;;;;;;;6381335;22;20693;-79
2021/09/16 03:03:24;;;;;;;2.33;1.17;;;;;;;;;;6371108;22;20375;-80
2021/09/16 03:08:53;;;;;;;2.20;1.40;;;;;;;;;;6381495;22;20473;-79
2021/09/16 03:11:19;;;;;;;1.97;1.30;;;;;;;;;;6370591;22;20446;-80
2021/09/16 03:13:45;;;;;;;2.10;1.20;;;;;;;;;;6381080;22;20385;-79
2021/09/16 03:16:11;;;;;;;1.63;1.23;;;;;;;;;;6381218;22;20355;-81
2021/09/16 03:18:37;;;;;;;1.73;1.10;;;;;;;;;;6380867;22;20374;-80
2021/09/16 03:24:07;;;;;;;1.67;1.20;;;;;;;;;;6381082;22;20454;-80
2021/09/16 03:26:33;;;;;;;2.37;1.27;;;;;;;;;;6370171;22;20427;-80
2021/09/16 03:28:59;;;;;;;2.93;1.53;;;;;;;;;;6380964;22;20366;-81
2021/09/16 03:31:25;;;;;;;1.30;1.20;;;;;;;;;;6380884;22;20877;-80
2021/09/16 03:33:51;;;;;;;1.57;1.40;;;;;;;;;;6380982;22;20375;-80
2021/09/16 03:39:21;;;;;;;2.47;1.50;;;;;;;;;;6380521;22;20650;-80
2021/09/16 03:41:47;;;;;;;1.43;1.30;;;;;;;;;;6381029;22;20367;-80
2021/09/16 03:44:13;;;;;;;2.63;1.87;;;;;;;;;;6370934;22;20420;-79
2021/09/16 03:46:42;;;;;;;3.10;1.50;;;;;;;;;;6381080;22;20762;-79
2021/09/16 03:49:08;;;;;;;1.30;1.20;;;;;;;;;;6380745;22;20355;-79
2021/09/16 03:54:37;;;;;;;1.70;1.53;;;;;;;;;;6380550;22;20423;-80
2021/09/16 03:57:04;;;;;;;4.90;1.53;;;;;;;;;;6342483;22;20391;-80
2021/09/16 03:59:30;;;;;;;1.53;1.40;;;;;;;;;;6380647;22;20830;-80
2021/09/16 04:01:56;;;;;;;2.83;1.60;;;;;;;;;;6380568;22;20352;-81
2021/09/16 04:10:10;;;;;;;1.43;1.33;;;;;;;;;;6380828;22;20416;-79
2021/09/16 04:12:36;;;;;;;3.43;1.60;;;;;;;;;;6380715;22;20425;-80
2021/09/16 04:15:03;;;;;;;2.37;1.73;;;;;;;;;;6370448;22;20371;-78
2021/09/16 04:17:29;;;;;;;2.57;2.13;;;;;;;;;;6380796;22;20415;-80
2021/09/16 04:19:55;;;;;;;4.33;1.60;;;;;;;;;;6370740;22;20410;-80
2021/09/16 04:22:21;;;;;;;4.27;1.83;;;;;;;;;;6380276;22;20425;-81
2021/09/16 04:24:47;;;;;;;2.00;1.70;;;;;;;;;;6370524;22;20505;-80
2021/09/16 04:27:13;;;;;;;2.80;1.87;;;;;;;;;;6380434;22;20437;-76
2021/09/16 04:29:40;;;;;;;1.57;1.47;;;;;;;;;;6380699;22;20370;-79
2021/09/16 04:32:06;;;;;;;2.17;1.97;;;;;;;;;;6380576;22;20474;-79
2021/09/16 04:34:32;;;;;;;1.97;1.87;;;;;;;;;;6380864;22;20405;-81
2021/09/16 04:40:02;;;;;;;1.67;1.57;;;;;;;;;;6380902;22;20391;-80
2021/09/16 04:42:28;;;;;;;2.77;1.57;;;;;;;;;;6380817;22;20693;-81
2021/09/16 04:44:54;;;;;;;3.70;1.50;;;;;;;;;;6380905;22;20666;-80
2021/09/16 04:47:20;;;;;;;1.90;1.70;;;;;;;;;;6380702;22;20826;-81
2021/09/16 04:49:46;;;;;;;3.67;2.10;;;;;;;;;;6380555;22;20416;-79
2021/09/16 04:55:15;;;;;;;2.20;1.63;;;;;;;;;;6380647;22;20694;-80
2021/09/16 04:57:41;;;;;;;4.90;2.30;;;;;;;;;;6342179;22;20387;-80
2021/09/16 05:00:08;;;;;;;3.00;2.33;;;;;;;;;;6380860;22;20371;-79
2021/09/16 05:02:34;;;;;;;2.20;2.00;;;;;;;;;;6380551;22;20364;-79
2021/09/16 05:05:00;;;;;;;3.30;1.80;;;;;;;;;;6380362;22;20359;-79
2021/09/16 05:07:26;;;;;;;4.37;1.87;;;;;;;;;;6380644;22;20367;-80
2021/09/16 05:09:52;;;;;;;1.90;1.80;;;;;;;;;;6380437;22;20402;-81
2021/09/16 05:12:18;;;;;;;2.70;2.47;;;;;;;;;;6380538;22;20414;-79
2021/09/16 05:14:44;;;;;;;4.20;2.20;;;;;;;;;;6380473;22;20359;-80
2021/09/16 05:17:10;;;;;;;5.83;2.27;;;;;;;;;;6342464;22;20480;-79
2021/09/16 05:19:36;;;;;;;3.20;2.47;;;;;;;;;;6341926;22;20510;-80
2021/09/16 05:25:05;;;;;;;3.77;2.10;;;;;;;;;;6380476;22;20370;-79
2021/09/16 05:27:31;;;;;;;5.37;2.80;;;;;;;;;;6369555;22;20733;-80
2021/09/16 05:29:57;;;;;;;5.43;2.37;;;;;;;;;;6380429;22;20454;-79
2021/09/16 05:32:27;;;;;;;3.43;2.77;;;;;;;;;;6380197;22;20790;-79
2021/09/16 05:34:54;;;;;;;3.13;2.10;;;;;;;;;;6342776;22;20395;-79
2021/09/16 05:40:23;;;;;;;2.40;2.20;;;;;;;;;;6381564;22;20435;-79
2021/09/16 05:42:49;;;;;;;2.57;2.37;;;;;;;;;;6381994;22;20459;-79
2021/09/16 05:45:15;;;;;;;2.57;2.33;;;;;;;;;;6382216;22;20484;-81
2021/09/16 05:47:41;;;;;;;4.53;2.50;;;;;;;;;;6381941;22;20371;-81
2021/09/16 05:50:07;;;;;;;6.10;3.27;;;;;;;;;;6382093;22;20368;-78
2021/09/16 05:55:39;;;;;;;4.10;2.77;;;;;;;;;;6381990;22;20463;-80
2021/09/16 05:58:06;;;;;;;2.90;2.13;;;;;;;;;;6381996;22;20895;-80
2021/09/16 06:00:32;;;;;;;6.37;2.37;;;;;;;;;;6382025;22;20416;-80
2021/09/16 06:02:58;;;;;;;2.93;2.30;;;;;;;;;;6381990;22;20359;-81
2021/09/16 06:05:24;;;;;;;4.00;2.40;;;;;;;;;;6382056;22;20420;-80
2021/09/16 06:10:53;;;;;;;3.43;2.30;;;;;;;;;;6381664;22;20370;-79
2021/09/16 06:13:19;;;;;;;4.57;2.20;;;;;;;;;;6381803;22;20371;-80
2021/09/16 06:15:45;;;;;;;2.13;1.93;;;;;;;;;;6380995;22;20413;-77
2021/09/16 06:18:11;;;;;;;3.40;2.07;;;;;;;;;;6381387;22;20407;-74
2021/09/16 06:20:37;;;;;;;2.03;1.93;;;;;;;;;;6381333;22;20869;-80
2021/09/16 06:26:07;;;;;;;1.87;1.77;;;;;;;;;;6379396;22;20798;-78
2021/09/16 06:28:33;;;;;;;3.23;2.33;;;;;;;;;;6380180;22;20371;-75
2021/09/16 06:30:59;;;;;;;2.27;2.07;;;;;;;;;;6341338;22;20864;-76
2021/09/16 06:33:25;;;;;;;1.50;1.40;;;;;;;;;;6379693;22;20384;-77
2021/09/16 06:35:51;;;;;;;2.30;1.90;;;;;;;;;;6380030;22;20367;-77
2021/09/16 06:38:16;;;;;;;3.30;2.07;;;;;;;;;;6379980;22;20370;-76
2021/09/16 06:40:42;;;;;;;2.00;1.80;;;;;;;;;;6378991;22;20359;-76
2021/09/16 06:43:11;;;;;;;4.60;1.93;;;;;;;;;;6379763;22;20679;-75
2021/09/16 06:45:37;;;;;;;4.87;2.77;;;;;;;;;;6341076;22;20473;-79
2021/09/16 06:48:03;;;;;;;3.07;1.90;;;;;;;;;;6379482;22;20413;-75
2021/09/16 06:50:30;;;;;;;2.47;2.27;;;;;;;;;;6380098;22;20452;-77
2021/09/16 06:55:59;;;;;;;2.53;2.33;;;;;;;;;;6379854;22;20382;-81
2021/09/16 06:58:28;;;;;;;4.00;2.83;;;;;;;;;;6379795;22;20367;-78
2021/09/16 07:00:54;;;;;;;3.17;2.77;;;;;;;;;;6379082;22;20682;-76
2021/09/16 07:03:27;;;;;;;4.60;2.40;;;;;;;;;;6379499;22;20429;-75
2021/09/16 07:05:54;;;;;;;3.13;2.53;;;;;;;;;;6379423;22;20424;-82
2021/09/16 07:11:25;;;;;;;3.00;2.10;;;;;;;;;;6379338;22;20856;-77
2021/09/16 07:13:51;;;;;;;5.30;2.70;;;;;;;;;;6379501;22;20462;-74
2021/09/16 07:16:17;;;;;;;2.93;2.10;;;;;;;;;;6379231;22;20383;-74
2021/09/16 07:18:43;;;;;;;8.53;2.40;;;;;;;;;;6379164;22;20371;-76
2021/09/16 07:21:09;;;;;;;2.07;1.80;;;;;;;;;;6341080;22;20386;-74
2021/09/16 07:23:35;;;;;;;2.17;1.80;;;;;;;;;;6340759;22;20391;-77
2021/09/16 07:26:01;;;;;;;2.20;2.07;;;;;;;;;;6340519;22;20441;-80
2021/09/16 07:28:27;;;;;;;2.80;1.87;;;;;;;;;;6368560;22;20371;-75
2021/09/16 07:30:53;;;;;;;2.27;2.07;;;;;;;;;;6379599;22;20639;-76
2021/09/16 07:33:19;;;;;;;2.60;2.30;;;;;;;;;;6368766;22;20895;-74
2021/09/16 07:35:45;;;;;;;3.43;2.27;;;;;;;;;;6379542;22;20418;-75
2021/09/16 07:41:15;;;;;;;2.37;2.17;;;;;;;;;;6379165;22;20370;-78
2021/09/16 07:43:41;;;;;;;6.43;2.67;;;;;;;;;;6368527;22;20406;-80
2021/09/16 07:46:07;;;;;;;2.50;2.30;;;;;;;;;;6368405;22;20371;-78
2021/09/16 07:48:33;;;;;;;3.80;2.03;;;;;;;;;;6368366;22;20409;-79
2021/09/16 07:50:59;;;;;;;2.40;2.20;;;;;;;;;;6368260;22;20367;-76
2021/09/16 07:56:30;;;;;;;2.63;2.37;;;;;;;;;;6378864;22;20925;-74
2021/09/16 07:58:56;;;;;;;3.70;2.50;;;;;;;;;;6379148;22;20392;-75
2021/09/16 08:01:21;;;;;;;3.60;1.90;;;;;;;;;;6367898;22;20368;-77
2021/09/16 08:03:48;;;;;;;5.90;3.10;;;;;;;;;;6368407;22;20456;-78
2021/09/16 08:06:14;;;;;;;2.87;2.47;;;;;;;;;;6368468;22;20403;-75
2021/09/16 08:11:43;;;;;;;2.80;2.50;;;;;;;;;;6379025;22;20433;-78
2021/09/16 08:14:09;;;;;;;3.40;2.17;;;;;;;;;;6368663;22;20675;-77
2021/09/16 08:16:36;;;;;;;3.07;1.70;;;;;;;;;;6340456;22;20399;-77
2021/09/16 08:19:02;;;;;;;2.20;1.17;;;;;;;;;;6378714;22;20838;-76
2021/09/16 08:21:28;;;;;;;2.90;1.37;;;;;;;;;;6367995;22;20449;-74
2021/09/16 08:26:58;;;;;;;1.67;1.20;;;;;;;;;;6379588;22;20559;-78
2021/09/16 08:29:24;;;;;;;1.67;0.90;;;;;;;;;;6369608;22;20853;-78
2021/09/16 08:31:50;;;;;;;1.23;0.60;;;;;;;;;;6369605;22;20411;-76
2021/09/16 08:34:16;;;;;;;0.93;0.80;;;;;;;;;;6369106;22;20421;-79
2021/09/16 08:36:42;;;;;;;1.20;0.80;;;;;;;;;;6342292;22;20386;-79
2021/09/16 08:42:11;;;;;;;1.27;0.63;;;;;;;;;;6380881;22;20428;-79
2021/09/16 08:44:38;;;;;;;0.60;0.60;;;;;;;;;;6370055;22;20659;-81
2021/09/16 08:47:04;;;;;;;0.70;0.60;;;;;;;;;;6370064;22;20370;-79
2021/09/16 08:49:30;;;;;;;0.80;0.43;;;;;;;;;;6370123;22;20367;-81
2021/09/16 08:51:56;;;;;;;0.40;0.40;;;;;;;;;;6369183;22;20462;-77
2021/09/16 08:57:26;;;;;;;0.60;0.43;;;;;;;;;;6379674;22;20409;-76
2021/09/16 08:59:52;;;;;;;0.83;0.40;;;;;;;;;;6369354;22;20423;-74
2021/09/16 09:02:18;;;;;;;0.60;0.50;;;;;;;;;;6369255;22;20404;-76
2021/09/16 09:04:43;;;;;;;0.50;0.40;;;;;;;;;;6341781;22;20478;-76
2021/09/16 09:07:12;;;;;;;0.70;0.60;;;;;;;;;;6369448;22;20891;-80
2021/09/16 09:12:41;;;;;;;0.60;0.43;;;;;;;;;;6382055;22;20428;-77
2021/09/16 09:15:10;;;;;;;1.10;0.60;;;;;;;;;;6371331;22;20902;-78
2021/09/16 09:17:36;;;;;;;1.40;0.70;;;;;;;;;;6370231;22;20900;-79
2021/09/16 09:20:08;;;;;;;0.70;0.70;;;;;;;;;;6369638;22;20371;-76
2021/09/16 09:22:36;;;;;;;1.60;0.70;;;;;;;;;;6369972;22;20689;-78
2021/09/16 09:25:09;;;;;;;0.80;0.70;;;;;;;;;;6369562;22;20408;-80
2021/09/16 09:27:38;;;;;;;1.60;0.60;;;;;;;;;;6369527;22;20434;-77
2021/09/16 09:30:12;;;;;;;0.80;0.47;;;;;;;;;;6380083;22;20382;-76
2021/09/16 09:32:50;;;;;;;2.00;0.57;;;;;;;;;;6380664;22;20430;-77
2021/09/16 09:35:42;;;;;;;0.80;0.70;;;;;;;;;;6369968;22;20801;-78
2021/09/16 09:38:16;;;;;;;0.90;0.70;;;;;;;;;;6365655;22;20402;-79
2021/09/16 09:40:43;;;;;;;0.97;0.67;;;;;;;;;;6370029;22;20390;-81
2021/09/16 09:43:18;;;;;;;0.73;0.70;;;;;;;;;;6370030;22;20695;-81
2021/09/16 09:46:03;;;;;;;4.40;1.10;;;;;;;;;;6369758;22;20363;-79
2021/09/16 09:48:29;;;;;;;2.57;1.27;;;;;;;;;;6369837;22;20500;-79
2021/09/16 09:50:55;;;;;;;1.93;1.73;;;;;;;;;;6370321;22;20367;-81
2021/09/16 09:53:21;;;;;;;1.30;1.20;;;;;;;;;;6370030;22;20440;-79
2021/09/16 09:55:49;;;;;;;4.33;1.27;;;;;;;;;;6388832;22;20375;-77
2021/09/16 09:58:16;;;;;;;1.67;1.03;;;;;;;;;;6383244;22;20814;-82
2021/09/16 10:00:42;;;;;;;1.60;1.50;;;;;;;;;;6344285;22;20401;-81
2021/09/16 10:03:08;;;;;;;2.80;1.80;;;;;;;;;;6381287;22;20420;-85
2021/09/16 10:05:36;;;;;;;1.80;1.70;;;;;;;;;;6381260;22;20371;-82
2021/09/16 10:08:12;;;;;;;2.30;2.20;;;;;;;;;;6369739;22;20367;-77
2021/09/16 10:10:39;;;;;;;3.13;2.13;;;;;;;;;;6369529;22;20834;-75
2021/09/16 10:13:05;;;;;;;5.10;2.40;;;;;;;;;;6369136;22;20432;-81
2021/09/16 10:15:32;;;;;;;3.13;2.70;;;;;;;;;;6369491;22;20364;-78
2021/09/16 10:17:58;;;;;;;3.93;3.53;;;;;;;;;;6369532;22;20450;-78
2021/09/16 10:20:25;;;;;;;3.97;2.80;;;;;;;;;;6369314;22;20834;-79
2021/09/16 10:22:52;;;;;;;4.20;3.20;;;;;;;;;;6369463;22;20370;-79
2021/09/16 10:25:20;;;;;;;4.57;3.87;;;;;;;;;;6369590;22;20491;-79
2021/09/16 10:27:55;;;;;;;4.93;3.90;;;;;;;;;;6368818;22;20433;-80
2021/09/16 10:30:21;;;;;;;4.90;4.50;;;;;;;;;;6369555;22;20416;-81
2021/09/16 10:32:58;;;;;;;5.57;5.07;;;;;;;;;;6380053;22;20473;-81
2021/09/16 10:35:24;;;;;;;4.47;4.07;;;;;;;;;;6369740;22;20690;-80
2021/09/16 10:37:50;;;;;;;4.50;4.10;;;;;;;;;;6369686;22;20363;-81
2021/09/16 10:43:21;;;;;;;5.17;4.57;;;;;;;;;;6379065;22;20370;-78
2021/09/16 10:45:48;;;;;;;5.37;4.87;;;;;;;;;;6368980;22;20378;-77
2021/09/16 10:48:13;;;;;;;5.00;4.60;;;;;;;;;;6368793;22;20826;-79
2021/09/16 10:50:47;;;;;;;5.00;4.60;;;;;;;;;;6379858;22;20382;-77
2021/09/16 10:53:33;;;;;;;9.00;7.53;;;;;;;;;;6368712;22;20456;-78
2021/09/16 10:55:59;;;;;;;6.70;5.77;;;;;;;;;;6379594;22;20640;-77
2021/09/16 10:58:28;;;;;;;8.10;6.63;;;;;;;;;;6368721;22;20360;-77
2021/09/16 11:00:54;;;;;;;7.93;6.83;;;;;;;;;;6379721;22;20367;-76
2021/09/16 11:03:20;;;;;;;7.63;6.93;;;;;;;;;;6379871;22;20468;-82
2021/09/16 11:05:47;;;;;;;9.03;8.13;;;;;;;;;;6368865;22;20355;-77
2021/09/16 11:08:15;;;;;;;11.17;9.13;;;;;;;;;;6379579;22;20385;-78
2021/09/16 11:10:41;;;;;;;9.60;8.50;;;;;;;;;;6368701;22;20671;-77
2021/09/16 11:13:25;;;;;;;10.27;8.73;;;;;;;;;;6368440;22;20418;-81
2021/09/16 11:15:55;;;;;;;11.10;9.00;;;;;;;;;;6379490;22;20390;-76
2021/09/16 11:18:23;;;;;;;11.40;10.20;;;;;;;;;;6368791;22;20360;-77
2021/09/16 11:20:54;;;;;;;11.37;9.90;;;;;;;;;;6368779;22;20371;-79
2021/09/16 11:23:20;;;;;;;14.00;11.07;;;;;;;;;;6368752;22;20814;-74
2021/09/16 11:25:47;;;;;;;15.47;12.43;;;;;;;;;;6368559;22;20391;-75
2021/09/16 11:28:14;;;;;;;16.50;10.40;;;;;;;;;;6368775;22;20368;-75
2021/09/16 11:30:41;;;;;;;14.70;10.33;;;;;;;;;;6379432;22;20383;-79
2021/09/16 11:33:11;;;;;;;16.10;9.90;;;;;;;;;;6368034;22;20453;-77
2021/09/16 11:35:37;;;;;;;13.30;10.33;;;;;;;;;;6379165;22;20372;-78
2021/09/16 11:38:04;;;;;;;14.00;10.70;;;;;;;;;;6368613;22;20374;-78
2021/09/16 11:43:34;;;;;;;12.93;11.10;;;;;;;;;;6379680;22;20518;-76
2021/09/16 11:46:02;;;;;;;16.70;11.20;;;;;;;;;;6369183;22;20690;-78
2021/09/16 11:48:28;;;;;;;16.00;11.47;;;;;;;;;;6379580;22;20402;-75
2021/09/16 11:51:00;;;;;;;11.60;10.07;;;;;;;;;;6341383;22;20784;-79
2021/09/16 11:53:31;;;;;;;14.67;11.63;;;;;;;;;;6379416;22;20403;-77
2021/09/16 11:59:07;;;;;;;11.40;9.50;;;;;;;;;;6378970;22;20367;-77
2021/09/16 12:01:32;;;;;;;15.27;10.40;;;;;;;;;;6368309;22;20830;-77
2021/09/16 12:04:01;;;;;;;12.17;9.80;;;;;;;;;;6368590;22;20360;-80
2021/09/16 12:06:34;;;;;;;16.63;12.60;;;;;;;;;;6368640;22;20368;-77
2021/09/16 12:09:01;;;;;;;15.50;11.70;;;;;;;;;;6368399;22;20828;-73
2021/09/16 12:11:28;;;;;;;14.97;12.37;;;;;;;;;;6379144;22;20430;-76
2021/09/16 12:13:57;;;;;;;13.47;11.43;;;;;;;;;;6368369;22;20366;-77
2021/09/16 12:16:24;;;;;;;17.40;13.77;;;;;;;;;;6379250;22;20374;-78
2021/09/16 12:19:13;;;;;;;16.83;12.40;;;;;;;;;;6378719;22;20382;-77
2021/09/16 12:21:40;;;;;;;15.37;12.30;;;;;;;;;;6368247;22;20360;-77
2021/09/16 12:24:07;;;;;;;14.37;11.93;;;;;;;;;;6368440;22;20367;-77
2021/09/16 12:26:37;;;;;;;19.73;12.27;;;;;;;;;;6367844;22;20425;-74
2021/09/16 12:29:04;;;;;;;14.30;12.37;;;;;;;;;;6340492;22;20731;-74
2021/09/16 12:31:38;;;;;;;17.03;12.73;;;;;;;;;;6368449;22;20414;-74
2021/09/16 12:34:22;;;;;;;21.37;12.67;;;;;;;;;;6368148;22;20368;-76
2021/09/16 12:36:52;;;;;;;14.80;11.60;;;;;;;;;;6368299;22;20368;-76
2021/09/16 12:39:18;;;;;;;15.63;13.20;;;;;;;;;;6368589;22;20386;-74
2021/09/16 12:41:52;;;;;;;16.17;13.37;;;;;;;;;;6368164;22;20362;-80
2021/09/16 12:44:22;;;;;;;17.63;12.80;;;;;;;;;;6369093;22;20807;-79
2021/09/16 12:46:50;;;;;;;14.83;12.77;;;;;;;;;;6381072;22;20373;-79
2021/09/16 12:49:25;;;;;;;14.07;12.57;;;;;;;;;;6370165;22;20363;-76
2021/09/16 12:51:55;;;;;;;14.87;12.07;;;;;;;;;;6370075;22;20418;-76
2021/09/16 12:54:21;;;;;;;13.40;12.07;;;;;;;;;;6370287;22;20370;-78
2021/09/16 12:56:50;;;;;;;13.73;12.30;;;;;;;;;;6370116;22;20362;-77
2021/09/16 12:59:20;;;;;;;16.83;13.83;;;;;;;;;;6380930;22;20430;-77
2021/09/16 13:01:47;;;;;;;14.90;13.23;;;;;;;;;;6369944;22;20356;-78
2021/09/16 13:04:13;;;;;;;16.77;15.07;;;;;;;;;;6369947;22;20387;-79
2021/09/16 13:06:39;;;;;;;18.83;14.90;;;;;;;;;;6370050;22;20368;-76
2021/09/16 13:09:05;;;;;;;15.50;13.60;;;;;;;;;;6369839;22;20399;-77
2021/09/16 13:14:35;;;;;;;17.03;15.13;;;;;;;;;;6380602;22;20944;-79
2021/09/16 13:17:01;;;;;;;21.43;14.57;;;;;;;;;;6369728;22;20433;-81
2021/09/16 13:19:27;;;;;;;15.97;14.20;;;;;;;;;;6342402;22;20371;-79
2021/09/16 13:21:53;;;;;;;16.20;14.60;;;;;;;;;;6342081;22;20477;-79
2021/09/16 13:24:19;;;;;;;15.30;12.90;;;;;;;;;;6369613;22;20407;-77
2021/09/16 13:29:48;;;;;;;15.60;14.10;;;;;;;;;;6380559;22;20382;-79
2021/09/16 13:32:17;;;;;;;16.23;14.50;;;;;;;;;;6368990;22;20432;-77
2021/09/16 13:34:43;;;;;;;15.97;14.27;;;;;;;;;;6380564;22;20363;-74
2021/09/16 13:37:11;;;;;;;15.13;13.53;;;;;;;;;;6369118;22;20364;-76
2021/09/16 13:39:37;;;;;;;16.50;13.40;;;;;;;;;;6376060;22;20356;-75
2021/09/16 13:42:04;;;;;;;16.53;13.77;;;;;;;;;;6368294;22;20394;-75
2021/09/16 13:44:30;;;;;;;16.03;13.57;;;;;;;;;;6340374;22;20383;-75
2021/09/16 13:46:56;;;;;;;17.13;15.30;;;;;;;;;;6368428;22;20382;-76
2021/09/16 13:49:22;;;;;;;20.83;14.43;;;;;;;;;;6379243;22;20382;-75
2021/09/16 13:51:48;;;;;;;19.53;15.37;;;;;;;;;;6368110;22;20407;-77
2021/09/16 13:54:14;;;;;;;17.10;15.40;;;;;;;;;;6339733;22;20453;-75
2021/09/16 13:59:43;;;;;;;17.00;15.20;;;;;;;;;;6378563;22;20420;-74
2021/09/16 14:02:10;;;;;;;22.97;17.87;;;;;;;;;;6367973;22;20372;-75
2021/09/16 14:04:36;;;;;;;18.83;16.13;;;;;;;;;;6368149;22;20361;-73
2021/09/16 14:07:02;;;;;;;17.43;15.53;;;;;;;;;;6367882;22;20697;-74
2021/09/16 14:09:28;;;;;;;18.13;15.47;;;;;;;;;;6367925;22;20352;-74
2021/09/16 14:14:58;;;;;;;16.13;14.60;;;;;;;;;;6378892;22;20415;-74
2021/09/16 14:17:24;;;;;;;19.00;14.30;;;;;;;;;;6378453;22;20363;-76
2021/09/16 14:19:50;;;;;;;19.10;15.40;;;;;;;;;;6340896;22;20397;-75
2021/09/16 14:22:16;;;;;;;17.67;15.40;;;;;;;;;;6369956;22;20360;-76
2021/09/16 14:24:42;;;;;;;19.93;14.90;;;;;;;;;;6369291;22;20445;-76
2021/09/16 14:30:12;;;;;;;16.57;14.87;;;;;;;;;;6380239;22;20366;-75
2021/09/16 14:32:38;;;;;;;13.53;12.23;;;;;;;;;;6369068;22;20892;-75
2021/09/16 14:35:04;;;;;;;16.50;14.10;;;;;;;;;;6369060;22;20363;-76
2021/09/16 14:37:30;;;;;;;15.30;12.80;;;;;;;;;;6369700;22;20363;-76
2021/09/16 14:39:56;;;;;;;14.43;12.10;;;;;;;;;;6368748;22;20402;-76
2021/09/16 14:45:25;;;;;;;13.27;12.00;;;;;;;;;;6380043;22;20432;-77
2021/09/16 14:47:52;;;;;;;14.27;12.77;;;;;;;;;;6369293;22;20363;-74
2021/09/16 14:50:18;;;;;;;13.33;11.93;;;;;;;;;;6369481;22;20372;-77
2021/09/16 14:52:45;;;;;;;13.37;12.07;;;;;;;;;;6369532;22;20419;-76
2021/09/16 14:55:11;;;;;;;16.30;12.23;;;;;;;;;;6379624;22;20822;-73
2021/09/16 15:00:41;;;;;;;14.27;12.73;;;;;;;;;;6379626;22;20368;-77
2021/09/16 15:03:06;;;;;;;15.30;13.63;;;;;;;;;;6368916;22;20363;-77
2021/09/16 15:05:35;;;;;;;12.03;10.53;;;;;;;;;;6369410;22;20416;-75
2021/09/16 15:08:01;;;;;;;13.30;11.07;;;;;;;;;;6369144;22;20356;-77
2021/09/16 15:10:27;;;;;;;13.30;10.80;;;;;;;;;;6368985;22;20371;-77
2021/09/16 15:15:56;;;;;;;10.40;9.30;;;;;;;;;;6379412;22;20852;-76
2021/09/16 15:18:22;;;;;;;10.13;9.17;;;;;;;;;;6368915;22;20376;-76
2021/09/16 15:20:49;;;;;;;10.40;9.40;;;;;;;;;;6380112;22;20696;-77
2021/09/16 15:23:16;;;;;;;10.90;9.80;;;;;;;;;;6379917;22;20518;-77
2021/09/16 15:31:31;;;;;;;8.90;8.00;;;;;;;;;;6379205;22;20950;-78
2021/09/16 15:33:57;;;;;;;9.37;8.40;;;;;;;;;;6369122;22;20375;-78
2021/09/16 15:36:23;;;;;;;12.00;10.90;;;;;;;;;;6369107;22;20363;-77
2021/09/16 15:38:49;;;;;;;10.27;9.20;;;;;;;;;;6369134;22;20482;-77
2021/09/16 15:41:15;;;;;;;9.13;8.23;;;;;;;;;;6379372;22;20387;-77
2021/09/16 15:43:41;;;;;;;10.37;9.20;;;;;;;;;;6369402;22;20713;-78
2021/09/16 15:46:07;;;;;;;10.00;9.00;;;;;;;;;;6370665;22;20386;-77
2021/09/16 15:48:33;;;;;;;10.37;9.37;;;;;;;;;;6379996;22;20418;-77
2021/09/16 15:50:59;;;;;;;11.03;7.23;;;;;;;;;;6368684;22;20375;-78
2021/09/16 15:53:26;;;;;;;8.10;7.37;;;;;;;;;;6368837;22;20394;-77
2021/09/16 15:55:53;;;;;;;8.30;7.50;;;;;;;;;;6340939;22;20715;-76
2021/09/16 16:01:22;;;;;;;8.33;7.53;;;;;;;;;;6379546;22;20413;-78
2021/09/16 16:03:48;;;;;;;12.07;8.70;;;;;;;;;;6368745;22;20375;-76
2021/09/16 16:06:14;;;;;;;8.30;7.60;;;;;;;;;;6368809;22;20375;-76
2021/09/16 16:08:41;;;;;;;9.97;8.20;;;;;;;;;;6368971;22;20382;-76
2021/09/16 16:11:07;;;;;;;8.40;7.60;;;;;;;;;;6379824;22;20379;-75
2021/09/16 16:16:38;;;;;;;9.60;7.33;;;;;;;;;;6379335;22;20832;-76
2021/09/16 16:19:06;;;;;;;8.40;7.60;;;;;;;;;;6368667;22;20694;-77
2021/09/16 16:21:32;;;;;;;9.10;8.20;;;;;;;;;;6379356;22;20379;-76
2021/09/16 16:23:58;;;;;;;9.90;8.47;;;;;;;;;;6368701;22;20432;-78
2021/09/16 16:26:24;;;;;;;9.67;8.60;;;;;;;;;;6368472;22;20513;-77
2021/09/16 16:28:50;;;;;;;11.30;9.20;;;;;;;;;;6368578;22;20471;-77
2021/09/16 16:31:16;;;;;;;9.40;8.40;;;;;;;;;;6368738;22;20446;-77
2021/09/16 16:33:43;;;;;;;9.60;7.93;;;;;;;;;;6368512;22;20371;-77
2021/09/16 16:36:09;;;;;;;8.40;7.40;;;;;;;;;;6368628;22;20363;-77
2021/09/16 16:38:34;;;;;;;8.87;8.13;;;;;;;;;;6368723;22;20872;-77
2021/09/16 16:41:01;;;;;;;8.70;7.83;;;;;;;;;;6379450;22;20451;-77
2021/09/16 16:46:30;;;;;;;9.43;8.53;;;;;;;;;;6375571;22;20370;-76
2021/09/16 16:48:56;;;;;;;8.40;6.87;;;;;;;;;;6368429;22;20855;-77
2021/09/16 16:51:22;;;;;;;8.90;8.10;;;;;;;;;;6368558;22;20371;-77
2021/09/16 16:53:48;;;;;;;7.53;6.83;;;;;;;;;;6368449;22;20394;-76
2021/09/16 16:56:14;;;;;;;7.23;6.67;;;;;;;;;;6368343;22;20374;-77
2021/09/16 17:01:44;;;;;;;8.60;7.70;;;;;;;;;;6380049;22;20691;-77
2021/09/16 17:04:13;;;;;;;8.53;6.60;;;;;;;;;;6369839;22;20454;-77